createdAt,value
2023-04-19T00:00:08.848Z,12.65
2023-04-19T00:02:36.578Z,15.02
2023-04-19T00:05:04.082Z,10.90
2023-04-19T00:07:31.013Z,12.38
2023-04-19T00:09:57.845Z,11.23
2023-04-19T00:12:25.088Z,13.50
2023-04-19T00:14:51.907Z,12.02
2023-04-19T00:17:19.621Z,12.20
2023-04-19T00:19:46.477Z,11.65
2023-04-19T00:22:13.383Z,12.63
2023-04-19T00:24:40.449Z,12.98
2023-04-19T00:27:07.289Z,10.68
2023-04-19T00:29:34.199Z,12.30
2023-04-19T00:32:01.038Z,12.10
2023-04-19T00:34:27.930Z,13.65
2023-04-19T00:36:54.755Z,12.50
2023-04-19T00:39:21.625Z,11.63
2023-04-19T00:41:48.461Z,11.07
2023-04-19T00:44:15.490Z,12.15
2023-04-19T00:46:43.312Z,12.00
2023-04-19T00:49:10.643Z,12.63
2023-04-19T00:51:37.484Z,10.57
2023-04-19T00:54:04.629Z,14.40
2023-04-19T00:56:34.364Z,10.50
2023-04-19T00:59:01.468Z,13.02
2023-04-19T01:01:29.321Z,11.80
2023-04-19T01:03:56.422Z,12.05
2023-04-19T01:06:23.451Z,16.35
2023-04-19T01:08:50.451Z,14.48
2023-04-19T01:11:17.309Z,12.32
2023-04-19T01:13:44.130Z,11.30
2023-04-19T01:16:11.312Z,10.38
2023-04-19T01:18:39.619Z,12.85
2023-04-19T01:21:08.908Z,12.02
2023-04-19T01:23:36.846Z,10.48
2023-04-19T01:26:03.730Z,14.27
2023-04-19T01:28:30.627Z,11.02
2023-04-19T01:30:57.538Z,9.30
2023-04-19T01:33:24.453Z,12.38
2023-04-19T01:35:51.307Z,11.93
2023-04-19T01:38:18.329Z,10.32
2023-04-19T01:40:45.765Z,17.23
2023-04-19T01:43:18.751Z,12.35
2023-04-19T01:48:12.902Z,10.15
2023-04-19T01:50:39.726Z,12.18
2023-04-19T01:53:06.551Z,10.07
2023-04-19T01:55:33.375Z,10.93
2023-04-19T01:58:00.259Z,13.98
2023-04-19T02:00:27.072Z,11.20
2023-04-19T02:02:53.930Z,12.23
2023-04-19T02:05:21.281Z,14.55
2023-04-19T02:07:48.175Z,12.23
2023-04-19T02:10:15.096Z,11.23
2023-04-19T02:12:43.078Z,14.02
2023-04-19T02:15:10.498Z,12.82
2023-04-19T02:17:37.425Z,12.40
2023-04-19T02:20:06.054Z,8.10
2023-04-19T02:22:32.879Z,10.77
2023-04-19T02:24:59.734Z,11.82
2023-04-19T02:27:26.782Z,9.65
2023-04-19T02:29:53.592Z,10.00
2023-04-19T02:32:20.453Z,12.35
2023-04-19T02:34:47.380Z,10.75
2023-04-19T02:37:14.218Z,11.18
2023-04-19T02:39:42.824Z,10.30
2023-04-19T02:42:09.641Z,10.73
2023-04-19T02:44:36.503Z,13.25
2023-04-19T02:47:03.487Z,12.48
2023-04-19T02:49:34.850Z,11.25
2023-04-19T02:52:01.784Z,10.25
2023-04-19T02:54:28.633Z,10.68
2023-04-19T02:56:55.462Z,12.02
2023-04-19T02:59:22.300Z,8.98
2023-04-19T03:01:49.160Z,15.27
2023-04-19T03:04:17.431Z,10.38
2023-04-19T03:06:44.823Z,12.55
2023-04-19T03:09:11.914Z,18.42
2023-04-19T03:11:38.960Z,8.68
2023-04-19T03:14:05.813Z,14.90
2023-04-19T03:16:32.647Z,12.55
2023-04-19T03:18:59.553Z,12.02
2023-04-19T03:21:27.738Z,9.75
2023-04-19T03:23:55.845Z,11.50
2023-04-19T03:26:22.830Z,9.90
2023-04-19T03:28:49.703Z,11.57
2023-04-19T03:31:16.856Z,13.27
2023-04-19T03:33:43.970Z,14.02
2023-04-19T03:36:10.799Z,9.68
2023-04-19T03:38:37.801Z,13.35
2023-04-19T03:41:04.727Z,11.05
2023-04-19T03:43:31.553Z,9.45
2023-04-19T03:45:58.760Z,14.75
2023-04-19T03:48:25.649Z,9.25
2023-04-19T03:50:52.491Z,13.20
2023-04-19T03:53:19.579Z,11.70
2023-04-19T03:55:46.399Z,12.15
2023-04-19T03:58:13.216Z,10.07
2023-04-19T04:00:40.051Z,13.23
2023-04-19T04:03:07.016Z,15.32
2023-04-19T04:05:36.265Z,9.63
2023-04-19T04:08:03.164Z,11.50
2023-04-19T04:10:30.036Z,12.43
2023-04-19T04:12:56.911Z,12.68
2023-04-19T04:15:23.753Z,9.27
2023-04-19T04:17:51.396Z,9.77
2023-04-19T04:20:18.330Z,9.82
2023-04-19T04:22:48.496Z,11.20
2023-04-19T04:25:19.562Z,9.85
2023-04-19T04:27:51.832Z,11.07
2023-04-19T04:30:18.751Z,12.90
2023-04-19T04:32:47.169Z,11.02
2023-04-19T04:35:14.036Z,9.38
2023-04-19T04:37:40.954Z,12.63
2023-04-19T04:40:09.273Z,9.95
2023-04-19T04:42:37.927Z,10.93
2023-04-19T04:45:05.868Z,10.35
2023-04-19T04:47:34.342Z,7.20
2023-04-19T04:50:02.528Z,10.73
2023-04-19T04:52:29.799Z,10.18
2023-04-19T04:54:56.671Z,11.75
2023-04-19T04:57:23.500Z,11.35
2023-04-19T04:59:50.341Z,11.02
2023-04-19T05:02:17.516Z,10.27
2023-04-19T05:04:44.509Z,12.00
2023-04-19T05:07:11.878Z,12.23
2023-04-19T05:09:38.743Z,13.90
2023-04-19T05:12:06.016Z,14.43
2023-04-19T05:14:32.848Z,12.52
2023-04-19T05:16:59.725Z,12.13
2023-04-19T05:19:26.568Z,13.88
2023-04-19T05:21:53.444Z,17.33
2023-04-19T05:24:20.448Z,13.15
2023-04-19T05:26:47.278Z,14.65
2023-04-19T05:29:14.457Z,13.55
2023-04-19T05:31:41.400Z,14.75
2023-04-19T05:34:08.354Z,14.80
2023-04-19T05:36:35.169Z,18.60
2023-04-19T05:39:02.077Z,14.35
2023-04-19T05:41:28.898Z,13.35
2023-04-19T05:43:55.752Z,15.48
2023-04-19T05:46:22.690Z,13.00
2023-04-19T05:48:49.578Z,13.93
2023-04-19T05:51:18.374Z,16.88
2023-04-19T05:53:46.527Z,15.15
2023-04-19T05:56:13.503Z,11.20
2023-04-19T05:58:40.329Z,15.45
2023-04-19T06:01:07.475Z,17.02
2023-04-19T06:03:34.594Z,17.60
2023-04-19T06:06:01.855Z,13.73
2023-04-19T06:08:28.825Z,14.50
2023-04-19T06:11:02.156Z,14.13
2023-04-19T06:13:35.052Z,14.55
2023-04-19T06:16:02.686Z,12.68
2023-04-19T06:18:29.708Z,13.25
2023-04-19T06:20:56.605Z,15.70
2023-04-19T06:23:23.810Z,15.73
2023-04-19T06:25:50.605Z,15.80
2023-04-19T06:28:17.476Z,14.95
2023-04-19T06:30:44.665Z,16.25
2023-04-19T06:33:11.580Z,12.35
2023-04-19T06:35:38.576Z,14.30
2023-04-19T06:38:05.522Z,14.23
2023-04-19T06:40:32.396Z,16.63
2023-04-19T06:42:59.235Z,15.60
2023-04-19T06:45:26.362Z,13.98
2023-04-19T06:47:53.258Z,16.58
2023-04-19T06:50:20.338Z,14.35
2023-04-19T06:52:47.175Z,18.02
2023-04-19T06:55:14.019Z,14.82
2023-04-19T06:57:41.101Z,13.93
2023-04-19T07:00:08.999Z,18.33
2023-04-19T07:02:36.090Z,14.07
2023-04-19T07:05:04.022Z,12.48
2023-04-19T07:07:30.881Z,18.25
2023-04-19T07:09:57.709Z,16.30
2023-04-19T07:12:24.523Z,13.52
2023-04-19T07:14:56.578Z,17.17
2023-04-19T07:17:24.079Z,18.33
2023-04-19T07:19:51.083Z,21.13
2023-04-19T07:22:17.911Z,15.60
2023-04-19T07:24:45.097Z,14.55
2023-04-19T07:27:12.304Z,18.23
2023-04-19T07:29:40.507Z,13.43
2023-04-19T07:32:14.078Z,16.95
2023-04-19T07:34:41.620Z,17.88
2023-04-19T07:37:08.726Z,16.38
2023-04-19T07:39:35.548Z,15.90
2023-04-19T07:42:02.512Z,20.40
2023-04-19T07:44:29.393Z,14.93
2023-04-19T07:46:56.499Z,16.08
2023-04-19T07:49:23.478Z,14.50
2023-04-19T07:51:50.876Z,18.15
2023-04-19T07:54:20.328Z,16.38
2023-04-19T07:56:47.247Z,16.75
2023-04-19T07:59:14.086Z,15.95
2023-04-19T08:01:42.458Z,17.73
2023-04-19T08:04:10.024Z,17.58
2023-04-19T08:06:39.915Z,17.42
2023-04-19T08:09:07.046Z,14.25
2023-04-19T08:11:33.896Z,15.45
2023-04-19T08:14:09.321Z,17.63
2023-04-19T08:17:19.538Z,18.13
2023-04-19T08:19:28.667Z,17.17
2023-04-19T08:21:55.509Z,16.80
2023-04-19T08:24:22.374Z,20.67
2023-04-19T08:26:53.938Z,19.30
2023-04-19T08:29:22.452Z,19.58
2023-04-19T08:31:49.730Z,22.35
2023-04-19T08:34:16.617Z,17.08
2023-04-19T08:36:51.820Z,19.05
2023-04-19T08:39:32.379Z,22.00
2023-04-19T08:42:18.376Z,16.67
2023-04-19T08:45:23.505Z,17.63
2023-04-19T08:47:58.689Z,16.27
2023-04-19T08:50:34.404Z,22.55
2023-04-19T08:53:21.035Z,18.20
2023-04-19T08:56:06.828Z,15.32
2023-04-19T08:58:54.834Z,15.60
2023-04-19T09:01:33.864Z,15.57
2023-04-19T09:04:26.434Z,14.60
2023-04-19T09:06:53.383Z,15.13
2023-04-19T09:09:36.970Z,19.33
2023-04-19T09:12:18.300Z,14.50
2023-04-19T09:15:00.467Z,18.13
2023-04-19T09:17:28.607Z,15.77
2023-04-19T09:19:55.673Z,17.58
2023-04-19T09:22:26.397Z,18.25
2023-04-19T09:25:30.653Z,18.77
2023-04-19T09:27:40.520Z,15.57
2023-04-19T09:30:14.802Z,19.63
2023-04-19T09:32:49.602Z,15.25
2023-04-19T09:35:16.709Z,17.15
2023-04-19T09:40:27.138Z,15.07
2023-04-19T09:43:08.886Z,14.10
2023-04-19T09:45:43.768Z,13.23
2023-04-19T09:48:12.218Z,17.88
2023-04-19T09:51:01.985Z,14.10
2023-04-19T09:53:35.527Z,13.03
2023-04-19T09:56:03.825Z,11.00
2023-04-19T09:58:46.101Z,14.13
2023-04-19T10:01:17.107Z,16.15
2023-04-19T10:03:50.406Z,17.73
2023-04-19T10:08:51.410Z,11.45
2023-04-19T10:11:22.178Z,9.50
2023-04-19T10:13:51.234Z,9.32
2023-04-19T10:16:20.225Z,12.70
2023-04-19T10:18:50.484Z,8.35
2023-04-19T10:21:19.420Z,10.18
2023-04-19T10:23:47.411Z,10.00
2023-04-19T10:26:14.286Z,10.10
2023-04-19T10:28:42.745Z,11.27
2023-04-19T10:31:16.334Z,8.02
2023-04-19T10:33:43.356Z,7.85
2023-04-19T10:36:14.662Z,8.10
2023-04-19T10:38:49.675Z,8.05
2023-04-19T10:41:19.254Z,8.30
2023-04-19T10:43:55.366Z,8.85
2023-04-19T10:46:22.258Z,7.55
2023-04-19T10:49:00.620Z,7.55
2023-04-19T10:51:35.835Z,7.97
2023-04-19T10:54:07.717Z,9.80
2023-04-19T10:56:34.618Z,6.28
2023-04-19T10:59:01.539Z,8.75
2023-04-19T11:01:46.177Z,8.70
2023-04-19T11:04:18.217Z,9.50
2023-04-19T11:06:51.613Z,9.48
2023-04-19T11:09:41.782Z,10.05
2023-04-19T11:12:12.219Z,7.70
2023-04-19T11:14:47.694Z,10.70
2023-04-19T11:17:25.948Z,11.40
2023-04-19T11:20:03.404Z,7.45
2023-04-19T11:22:30.158Z,7.15
2023-04-19T11:24:57.066Z,10.25
2023-04-19T11:27:23.924Z,7.97
2023-04-19T11:29:50.734Z,11.05
2023-04-19T11:32:21.711Z,9.32
2023-04-19T11:34:48.560Z,11.85
2023-04-19T11:37:15.364Z,7.00
2023-04-19T11:39:47.565Z,8.52
2023-04-19T11:42:21.620Z,10.53
2023-04-19T11:44:52.481Z,11.60
2023-04-19T11:47:20.490Z,7.47
2023-04-19T11:49:47.384Z,8.10
2023-04-19T11:52:23.198Z,9.57
2023-04-19T11:54:53.811Z,10.90
2023-04-19T11:57:31.653Z,8.48
2023-04-19T12:00:12.527Z,9.23
2023-04-19T12:02:44.034Z,8.90
2023-04-19T12:05:14.548Z,7.45
2023-04-19T12:08:08.619Z,8.10
2023-04-19T12:10:36.339Z,8.80
2023-04-19T12:13:18.207Z,9.13
2023-04-19T12:15:47.118Z,8.48
2023-04-19T12:18:14.844Z,11.77
2023-04-19T12:20:49.360Z,7.65
2023-04-19T12:23:18.202Z,8.15
2023-04-19T12:25:50.064Z,8.35
2023-04-19T12:28:17.286Z,8.95
2023-04-19T12:30:44.333Z,9.57
2023-04-19T12:33:11.862Z,8.95
2023-04-19T12:35:39.359Z,9.52
2023-04-19T12:38:06.303Z,7.80
2023-04-19T12:40:33.713Z,11.65
2023-04-19T12:43:00.609Z,9.80
2023-04-19T12:45:27.993Z,9.52
2023-04-19T12:47:54.911Z,9.18
2023-04-19T12:50:21.970Z,7.47
2023-04-19T12:52:48.868Z,7.20
2023-04-19T12:55:15.745Z,6.45
2023-04-19T12:57:42.687Z,7.70
2023-04-19T13:00:11.045Z,7.72
2023-04-19T13:02:38.597Z,5.85
2023-04-19T13:05:06.637Z,6.63
2023-04-19T13:07:33.520Z,12.75
2023-04-19T13:10:00.602Z,13.82
2023-04-19T13:12:28.615Z,9.07
2023-04-19T13:14:55.478Z,6.57
2023-04-19T13:17:22.387Z,7.55
2023-04-19T13:19:49.284Z,9.45
2023-04-19T13:22:16.146Z,16.20
2023-04-19T13:24:43.028Z,7.90
2023-04-19T13:27:09.955Z,7.35
2023-04-19T13:29:37.312Z,10.88
2023-04-19T13:32:07.797Z,8.02
2023-04-19T13:34:35.523Z,6.53
2023-04-19T13:37:02.379Z,9.63
2023-04-19T13:39:29.222Z,8.05
2023-04-19T13:41:56.131Z,6.68
2023-04-19T13:44:23.222Z,6.43
2023-04-19T13:46:50.209Z,5.18
2023-04-19T13:49:19.240Z,8.35
2023-04-19T13:51:50.840Z,6.00
2023-04-19T13:54:19.587Z,8.80
2023-04-19T13:56:48.647Z,12.18
2023-04-19T13:59:16.928Z,6.80
2023-04-19T14:01:43.730Z,5.43
2023-04-19T14:04:10.911Z,7.22
2023-04-19T14:06:38.071Z,8.85
2023-04-19T14:09:04.933Z,9.18
2023-04-19T14:11:31.818Z,8.30
2023-04-19T14:13:58.651Z,6.85
2023-04-19T14:16:25.683Z,7.85
2023-04-19T14:18:52.902Z,7.15
2023-04-19T14:21:20.005Z,10.80
2023-04-19T14:23:47.008Z,7.20
2023-04-19T14:26:14.719Z,8.35
2023-04-19T14:28:41.592Z,9.02
2023-04-19T14:31:08.429Z,8.88
2023-04-19T14:33:35.500Z,10.50
2023-04-19T14:36:02.378Z,9.57
2023-04-19T14:38:29.226Z,9.75
2023-04-19T14:40:56.486Z,9.05
2023-04-19T14:43:23.450Z,9.98
2023-04-19T14:45:52.981Z,12.43
2023-04-19T14:48:22.064Z,7.72
2023-04-19T14:50:49.635Z,8.52
2023-04-19T14:53:16.579Z,10.70
2023-04-19T14:55:43.557Z,11.57
2023-04-19T14:58:10.420Z,11.82
2023-04-19T15:00:37.311Z,9.38
2023-04-19T15:03:04.497Z,13.55
2023-04-19T15:05:35.590Z,16.95
2023-04-19T15:08:02.652Z,12.00
2023-04-19T15:10:29.561Z,10.30
2023-04-19T15:12:56.429Z,12.77
2023-04-19T15:15:23.295Z,9.02
2023-04-19T15:17:50.241Z,10.57
2023-04-19T15:20:17.342Z,8.88
2023-04-19T15:22:44.183Z,7.95
2023-04-19T15:25:11.085Z,11.90
2023-04-19T15:27:37.972Z,8.63
2023-04-19T15:30:06.462Z,8.20
2023-04-19T15:32:36.914Z,6.72
2023-04-19T15:35:07.292Z,7.72
2023-04-19T15:37:34.130Z,6.45
2023-04-19T15:40:01.066Z,6.50
2023-04-19T15:42:27.890Z,7.68
2023-04-19T15:44:54.818Z,5.45
2023-04-19T15:47:21.808Z,6.47
2023-04-19T15:49:48.671Z,5.85
2023-04-19T15:52:15.495Z,2.88
2023-04-19T15:54:42.348Z,3.30
2023-04-19T15:57:09.162Z,2.22
2023-04-19T15:59:36.089Z,1.95
2023-04-19T16:02:03.044Z,1.48
2023-04-19T16:04:31.341Z,2.00
2023-04-19T16:06:59.479Z,3.17
2023-04-19T16:09:26.620Z,3.78
2023-04-19T16:11:53.524Z,3.33
2023-04-19T16:14:20.380Z,3.35
2023-04-19T16:16:47.978Z,6.32
2023-04-19T16:19:15.098Z,4.85
2023-04-19T16:21:42.126Z,4.43
2023-04-19T16:24:08.973Z,4.53
2023-04-19T16:26:35.820Z,3.60
2023-04-19T16:29:02.631Z,6.22
2023-04-19T16:31:29.560Z,5.13
2023-04-19T16:33:56.434Z,6.38
2023-04-19T16:36:23.267Z,6.93
2023-04-19T16:38:50.082Z,6.32
2023-04-19T16:41:17.415Z,4.43
2023-04-19T16:43:44.575Z,8.18
2023-04-19T16:46:11.440Z,5.18
2023-04-19T16:48:38.315Z,6.32
2023-04-19T16:51:05.292Z,7.57
2023-04-19T16:53:32.402Z,7.45
2023-04-19T16:56:00.498Z,5.25
2023-04-19T16:58:27.342Z,7.78
2023-04-19T17:00:55.261Z,6.25
2023-04-19T17:03:22.429Z,6.88
2023-04-19T17:05:49.391Z,6.40
2023-04-19T17:08:16.333Z,6.25
2023-04-19T17:10:43.131Z,4.90
2023-04-19T17:13:09.998Z,5.70
2023-04-19T17:15:38.739Z,6.78
2023-04-19T17:18:05.925Z,5.75
2023-04-19T17:20:32.902Z,11.02
2023-04-19T17:22:59.800Z,8.68
2023-04-19T17:25:26.635Z,8.02
2023-04-19T17:27:53.497Z,8.10
2023-04-19T17:30:21.027Z,10.68
2023-04-19T17:32:47.909Z,7.55
2023-04-19T17:35:15.561Z,7.68
2023-04-19T17:37:43.791Z,7.30
2023-04-19T17:40:11.213Z,6.90
2023-04-19T17:42:38.198Z,8.88
2023-04-19T17:45:10.228Z,7.07
2023-04-19T17:47:40.965Z,7.83
2023-04-19T17:50:13.505Z,9.85
2023-04-19T17:52:40.542Z,10.50
2023-04-19T17:55:08.227Z,8.40
2023-04-19T17:57:35.476Z,6.18
2023-04-19T18:00:06.750Z,7.85
2023-04-19T18:03:02.645Z,10.15
2023-04-19T18:05:29.614Z,7.03
2023-04-19T18:07:56.764Z,9.02
2023-04-19T18:10:23.606Z,9.80
2023-04-19T18:12:50.815Z,7.25
2023-04-19T18:15:17.751Z,7.07
2023-04-19T18:17:44.621Z,9.95
2023-04-19T18:20:13.695Z,5.82
2023-04-19T18:22:40.824Z,8.52
2023-04-19T18:25:08.228Z,13.38
2023-04-19T18:27:35.322Z,18.90
2023-04-19T18:30:04.164Z,13.15
2023-04-19T18:32:32.192Z,18.77
2023-04-19T18:34:59.075Z,10.93
2023-04-19T18:37:25.932Z,13.68
2023-04-19T18:39:52.749Z,11.88
2023-04-19T18:42:19.608Z,12.07
2023-04-19T18:44:53.656Z,8.07
2023-04-19T18:47:21.532Z,10.50
2023-04-19T18:50:02.874Z,9.32
2023-04-19T18:52:31.907Z,6.88
2023-04-19T18:54:59.015Z,9.30
2023-04-19T18:57:27.632Z,8.60
2023-04-19T18:59:56.616Z,10.43
2023-04-19T19:02:23.607Z,7.55
2023-04-19T19:04:57.829Z,8.80
2023-04-19T19:10:06.315Z,6.95
2023-04-19T19:12:43.757Z,7.63
2023-04-19T19:15:10.937Z,8.20
2023-04-19T19:17:38.157Z,9.45
2023-04-19T19:20:06.956Z,10.15
2023-04-19T19:22:34.383Z,20.77
2023-04-19T19:25:01.369Z,8.07
2023-04-19T19:27:28.352Z,12.15
2023-04-19T19:29:55.453Z,7.78
2023-04-19T19:32:22.467Z,9.40
2023-04-19T19:34:56.558Z,9.50
2023-04-19T19:37:27.761Z,8.05
2023-04-19T19:39:56.469Z,6.38
2023-04-19T19:42:24.282Z,9.02
2023-04-19T19:44:57.006Z,8.93
2023-04-19T19:47:25.291Z,8.90
2023-04-19T19:50:21.346Z,7.05
2023-04-19T19:52:39.178Z,7.95
2023-04-19T19:55:08.653Z,9.15
2023-04-19T20:00:28.114Z,7.15
2023-04-19T20:02:58.962Z,8.80
2023-04-19T20:05:26.659Z,7.05
2023-04-19T20:08:14.578Z,10.48
2023-04-19T20:10:43.095Z,9.93
2023-04-19T20:13:12.011Z,10.20
2023-04-19T20:15:39.971Z,12.23
2023-04-19T20:18:08.292Z,10.25
2023-04-19T20:20:36.711Z,10.20
2023-04-19T20:23:03.677Z,12.05
2023-04-19T20:25:32.688Z,12.48
2023-04-19T20:28:02.505Z,12.55
2023-04-19T20:30:29.344Z,12.20
2023-04-19T20:32:56.291Z,10.70
2023-04-19T20:35:23.404Z,13.02
2023-04-19T20:37:51.083Z,10.75
2023-04-19T20:40:18.942Z,10.75
2023-04-19T20:42:45.772Z,12.15
2023-04-19T20:45:16.016Z,14.05
2023-04-19T20:47:43.269Z,13.48
2023-04-19T20:50:10.796Z,21.85
2023-04-19T20:52:37.843Z,17.08
2023-04-19T20:55:05.179Z,17.75
2023-04-19T20:57:32.028Z,13.82
2023-04-19T20:59:59.617Z,18.70
2023-04-19T21:02:26.703Z,13.02
2023-04-19T21:04:53.762Z,13.52
2023-04-19T21:07:20.710Z,16.52
2023-04-19T21:09:47.536Z,17.88
2023-04-19T21:12:14.380Z,15.88
2023-04-19T21:14:41.290Z,11.05
2023-04-19T21:17:08.098Z,14.10
2023-04-19T21:19:37.049Z,15.95
2023-04-19T21:22:03.889Z,12.13
2023-04-19T21:24:30.738Z,15.43
2023-04-19T21:26:57.944Z,11.35
2023-04-19T21:29:25.496Z,9.25
2023-04-19T21:31:52.387Z,7.70
2023-04-19T21:34:19.264Z,11.60
2023-04-19T21:36:46.084Z,12.57
2023-04-19T21:39:12.973Z,6.28
2023-04-19T21:41:39.825Z,6.32
2023-04-19T21:44:07.230Z,6.40
2023-04-19T21:46:35.123Z,11.23
2023-04-19T21:49:02.052Z,7.95
2023-04-19T21:51:28.871Z,7.53
2023-04-19T21:53:55.730Z,4.93
2023-04-19T21:56:22.560Z,8.05
2023-04-19T21:58:49.441Z,6.43
2023-04-19T22:03:43.493Z,5.32
2023-04-19T22:06:10.455Z,7.63
2023-04-19T22:08:37.323Z,7.30
2023-04-19T22:11:04.393Z,7.82
2023-04-19T22:13:33.663Z,5.97
2023-04-19T22:16:02.540Z,7.38
2023-04-19T22:18:29.455Z,8.23
2023-04-19T22:20:56.267Z,5.35
2023-04-19T22:23:23.122Z,5.88
2023-04-19T22:25:50.097Z,8.60
2023-04-19T22:28:16.954Z,10.45
2023-04-19T22:30:43.821Z,6.40
2023-04-19T22:33:10.901Z,5.07
2023-04-19T22:35:37.738Z,5.28
2023-04-19T22:38:04.582Z,6.90
2023-04-19T22:40:31.406Z,5.18
2023-04-19T22:42:58.254Z,6.85
2023-04-19T22:45:25.128Z,6.28
2023-04-19T22:47:51.977Z,6.75
2023-04-19T22:50:19.153Z,7.45
2023-04-19T22:52:46.063Z,5.95
2023-04-19T22:55:13.009Z,5.63
2023-04-19T22:57:39.846Z,6.68
2023-04-19T23:00:10.657Z,5.43
2023-04-19T23:02:38.825Z,5.72
2023-04-19T23:05:06.818Z,4.78
2023-04-19T23:07:34.017Z,5.55
2023-04-19T23:10:01.254Z,5.80
2023-04-19T23:12:31.287Z,5.35
2023-04-19T23:14:58.575Z,4.78
2023-04-19T23:17:25.772Z,6.22
2023-04-19T23:19:52.613Z,9.05
2023-04-19T23:22:19.534Z,6.22
2023-04-19T23:24:46.480Z,5.10
2023-04-19T23:27:13.357Z,8.85
2023-04-19T23:29:40.234Z,5.88
2023-04-19T23:32:07.096Z,4.35
2023-04-19T23:34:33.903Z,4.65
2023-04-19T23:37:00.909Z,7.00
2023-04-19T23:39:27.743Z,7.57
2023-04-19T23:41:54.628Z,4.13
2023-04-19T23:44:21.675Z,4.63
2023-04-19T23:46:48.578Z,6.70
2023-04-19T23:49:15.672Z,7.47
2023-04-19T23:51:42.855Z,4.80
2023-04-19T23:54:09.683Z,8.35
2023-04-19T23:56:36.518Z,4.38
2023-04-19T23:59:03.509Z,5.30
